sensor_id;sensor_type;location;lat;lon;timestamp;pressure;altitude;pressure_sealevel;temperature;humidity
62458;BME280;48509;52.122;5.250;2023-03-14T00:01:27;98810.0;;;11.65;100.0
62458;BME280;48509;52.122;5.250;2023-03-14T00:04:39;98815.0;;;11.75;100.0
62458;BME280;48509;52.122;5.250;2023-03-14T00:06:16;98814.0;;;11.72;100.0
62458;BME280;48509;52.122;5.250;2023-03-14T00:07:53;98811.0;;;11.62;100.0
62458;BME280;48509;52.122;5.250;2023-03-14T00:11:06;98817.0;;;11.68;100.0
62458;BME280;48509;52.122;5.250;2023-03-14T00:12:43;98816.0;;;11.77;100.0
62458;BME280;48509;52.122;5.250;2023-03-14T00:14:20;98814.0;;;11.76;100.0
62458;BME280;48509;52.122;5.250;2023-03-14T00:17:39;98812.0;;;11.85;100.0
62458;BME280;48509;52.122;5.250;2023-03-14T00:19:14;98811.0;;;11.87;100.0
62458;BME280;48509;52.122;5.250;2023-03-14T00:20:51;98810.0;;;11.85;100.0
62458;BME280;48509;52.122;5.250;2023-03-14T00:22:29;98810.0;;;11.9;100.0
62458;BME280;48509;52.122;5.250;2023-03-14T00:25:43;98811.0;;;11.85;100.0
62458;BME280;48509;52.122;5.250;2023-03-14T00:27:19;98803.0;;;11.79;100.0
62458;BME280;48509;52.122;5.250;2023-03-14T00:28:55;98801.0;;;11.75;100.0
62458;BME280;48509;52.122;5.250;2023-03-14T00:32:07;98806.0;;;11.68;100.0
62458;BME280;48509;52.122;5.250;2023-03-14T00:33:44;98803.0;;;11.6;100.0
62458;BME280;48509;52.122;5.250;2023-03-14T00:35:20;98805.0;;;11.65;100.0
62458;BME280;48509;52.122;5.250;2023-03-14T00:36:57;98807.0;;;11.66;100.0
62458;BME280;48509;52.122;5.250;2023-03-14T00:40:10;98817.0;;;11.66;100.0
62458;BME280;48509;52.122;5.250;2023-03-14T00:41:46;98817.0;;;11.58;100.0
62458;BME280;48509;52.122;5.250;2023-03-14T00:43:22;98811.0;;;11.67;100.0
62458;BME280;48509;52.122;5.250;2023-03-14T00:46:35;98818.0;;;11.66;100.0
62458;BME280;48509;52.122;5.250;2023-03-14T00:48:11;98817.0;;;11.67;100.0
62458;BME280;48509;52.122;5.250;2023-03-14T00:49:48;98810.0;;;11.65;99.78
62458;BME280;48509;52.122;5.250;2023-03-14T00:53:00;98819.0;;;11.61;100.0
62458;BME280;48509;52.122;5.250;2023-03-14T00:54:36;98815.0;;;11.56;100.0
62458;BME280;48509;52.122;5.250;2023-03-14T00:56:12;98811.0;;;11.58;100.0
62458;BME280;48509;52.122;5.250;2023-03-14T00:57:49;98808.0;;;11.56;100.0
62458;BME280;48509;52.122;5.250;2023-03-14T01:01:05;98810.0;;;11.59;100.0
62458;BME280;48509;52.122;5.250;2023-03-14T01:02:42;98808.0;;;11.57;100.0
62458;BME280;48509;52.122;5.250;2023-03-14T01:04:20;98810.0;;;11.61;100.0
62458;BME280;48509;52.122;5.250;2023-03-14T01:07:42;98815.0;;;11.68;100.0
62458;BME280;48509;52.122;5.250;2023-03-14T01:09:18;98823.0;;;11.5;100.0
62458;BME280;48509;52.122;5.250;2023-03-14T01:10:54;98825.0;;;11.54;100.0
62458;BME280;48509;52.122;5.250;2023-03-14T01:12:31;98821.0;;;11.46;100.0
62458;BME280;48509;52.122;5.250;2023-03-14T01:15:43;98825.0;;;11.47;100.0
62458;BME280;48509;52.122;5.250;2023-03-14T01:17:19;98830.0;;;11.37;100.0
62458;BME280;48509;52.122;5.250;2023-03-14T01:18:55;98826.0;;;11.31;100.0
62458;BME280;48509;52.122;5.250;2023-03-14T01:22:08;98830.0;;;11.21;100.0
62458;BME280;48509;52.122;5.250;2023-03-14T01:23:45;98830.0;;;11.33;100.0
62458;BME280;48509;52.122;5.250;2023-03-14T01:25:22;98833.0;;;11.22;100.0
62458;BME280;48509;52.122;5.250;2023-03-14T01:28:34;98827.0;;;11.28;100.0
62458;BME280;48509;52.122;5.250;2023-03-14T01:30:12;98841.0;;;11.19;100.0
62458;BME280;48509;52.122;5.250;2023-03-14T01:31:49;98828.0;;;11.04;100.0
62458;BME280;48509;52.122;5.250;2023-03-14T01:33:25;98824.0;;;11.11;100.0
62458;BME280;48509;52.122;5.250;2023-03-14T01:36:38;98828.0;;;11.15;100.0
62458;BME280;48509;52.122;5.250;2023-03-14T01:38:14;98822.0;;;11.12;100.0
62458;BME280;48509;52.122;5.250;2023-03-14T01:39:50;98825.0;;;11.14;100.0
62458;BME280;48509;52.122;5.250;2023-03-14T01:43:12;98813.0;;;11.01;100.0
62458;BME280;48509;52.122;5.250;2023-03-14T01:44:52;98807.0;;;11.07;100.0
62458;BME280;48509;52.122;5.250;2023-03-14T01:46:34;98811.0;;;11.08;100.0
62458;BME280;48509;52.122;5.250;2023-03-14T01:48:13;98811.0;;;11.17;100.0
62458;BME280;48509;52.122;5.250;2023-03-14T01:51:34;98815.0;;;11.23;100.0
62458;BME280;48509;52.122;5.250;2023-03-14T01:53:12;98812.0;;;11.2;100.0
62458;BME280;48509;52.122;5.250;2023-03-14T01:54:51;98817.0;;;11.25;100.0
62458;BME280;48509;52.122;5.250;2023-03-14T01:56:30;98815.0;;;11.2;100.0
62458;BME280;48509;52.122;5.250;2023-03-14T01:59:47;98807.0;;;11.22;100.0
62458;BME280;48509;52.122;5.250;2023-03-14T02:01:26;98802.0;;;11.31;100.0
62458;BME280;48509;52.122;5.250;2023-03-14T02:03:07;98798.0;;;11.37;100.0
62458;BME280;48509;52.122;5.250;2023-03-14T02:04:50;98788.0;;;11.45;100.0
62458;BME280;48509;52.122;5.250;2023-03-14T02:08:14;98785.0;;;11.42;100.0
62458;BME280;48509;52.122;5.250;2023-03-14T02:09:54;98780.0;;;11.3;100.0
62458;BME280;48509;52.122;5.250;2023-03-14T02:11:32;98790.0;;;11.33;100.0
62458;BME280;48509;52.122;5.250;2023-03-14T02:13:10;98793.0;;;11.31;100.0
62458;BME280;48509;52.122;5.250;2023-03-14T02:16:23;98790.0;;;11.34;100.0
62458;BME280;48509;52.122;5.250;2023-03-14T02:18:02;98785.0;;;11.31;100.0
62458;BME280;48509;52.122;5.250;2023-03-14T02:19:52;98780.0;;;11.38;100.0
62458;BME280;48509;52.122;5.250;2023-03-14T02:21:41;98785.0;;;11.23;100.0
62458;BME280;48509;52.122;5.250;2023-03-14T02:25:14;98784.0;;;11.3;100.0
62458;BME280;48509;52.122;5.250;2023-03-14T02:27:25;98778.0;;;11.33;100.0
62458;BME280;48509;52.122;5.250;2023-03-14T02:29:01;98776.0;;;11.36;100.0
62458;BME280;48509;52.122;5.250;2023-03-14T02:30:37;98773.0;;;11.33;100.0
62458;BME280;48509;52.122;5.250;2023-03-14T02:32:16;98773.0;;;11.37;100.0
62458;BME280;48509;52.122;5.250;2023-03-14T02:35:34;98776.0;;;11.41;100.0
62458;BME280;48509;52.122;5.250;2023-03-14T02:37:17;98776.0;;;11.33;100.0
62458;BME280;48509;52.122;5.250;2023-03-14T02:39:05;98768.0;;;11.29;100.0
62458;BME280;48509;52.122;5.250;2023-03-14T02:40:42;98770.0;;;11.24;100.0
62458;BME280;48509;52.122;5.250;2023-03-14T02:43:58;98768.0;;;11.25;100.0
62458;BME280;48509;52.122;5.250;2023-03-14T02:45:37;98772.0;;;11.13;100.0
62458;BME280;48509;52.122;5.250;2023-03-14T02:47:20;98772.0;;;11.19;100.0
62458;BME280;48509;52.122;5.250;2023-03-14T02:49:02;98766.0;;;11.24;100.0
62458;BME280;48509;52.122;5.250;2023-03-14T02:52:17;98761.0;;;11.23;100.0
62458;BME280;48509;52.122;5.250;2023-03-14T02:53:53;98758.0;;;11.24;100.0
62458;BME280;48509;52.122;5.250;2023-03-14T02:55:29;98758.0;;;11.21;100.0
62458;BME280;48509;52.122;5.250;2023-03-14T02:57:05;98755.0;;;11.24;100.0
62458;BME280;48509;52.122;5.250;2023-03-14T03:00:18;98759.0;;;11.29;100.0
62458;BME280;48509;52.122;5.250;2023-03-14T03:01:55;98751.0;;;11.36;100.0
62458;BME280;48509;52.122;5.250;2023-03-14T03:03:31;98753.0;;;11.4;100.0
62458;BME280;48509;52.122;5.250;2023-03-14T03:06:43;98746.0;;;11.38;100.0
62458;BME280;48509;52.122;5.250;2023-03-14T03:08:21;98761.0;;;11.3;100.0
62458;BME280;48509;52.122;5.250;2023-03-14T03:09:57;98755.0;;;11.23;100.0
62458;BME280;48509;52.122;5.250;2023-03-14T03:13:09;98752.0;;;11.23;100.0
62458;BME280;48509;52.122;5.250;2023-03-14T03:14:46;98752.0;;;11.16;100.0
62458;BME280;48509;52.122;5.250;2023-03-14T03:16:22;98750.0;;;11.18;100.0
62458;BME280;48509;52.122;5.250;2023-03-14T03:17:58;98745.0;;;11.26;100.0
62458;BME280;48509;52.122;5.250;2023-03-14T03:21:11;98743.0;;;11.17;100.0
62458;BME280;48509;52.122;5.250;2023-03-14T03:22:47;98745.0;;;11.18;100.0
62458;BME280;48509;52.122;5.250;2023-03-14T03:24:23;98741.0;;;11.23;100.0
62458;BME280;48509;52.122;5.250;2023-03-14T03:27:37;98734.0;;;11.18;100.0
62458;BME280;48509;52.122;5.250;2023-03-14T03:29:14;98728.0;;;11.26;100.0
62458;BME280;48509;52.122;5.250;2023-03-14T03:30:50;98730.0;;;11.25;100.0
62458;BME280;48509;52.122;5.250;2023-03-14T03:34:03;98725.0;;;11.29;100.0
62458;BME280;48509;52.122;5.250;2023-03-14T03:35:44;98719.0;;;11.26;100.0
62458;BME280;48509;52.122;5.250;2023-03-14T03:37:20;98724.0;;;11.35;100.0
62458;BME280;48509;52.122;5.250;2023-03-14T03:38:56;98720.0;;;11.31;100.0
62458;BME280;48509;52.122;5.250;2023-03-14T03:42:08;98723.0;;;11.39;100.0
62458;BME280;48509;52.122;5.250;2023-03-14T03:43:45;98727.0;;;11.34;100.0
62458;BME280;48509;52.122;5.250;2023-03-14T03:45:21;98727.0;;;11.29;100.0
62458;BME280;48509;52.122;5.250;2023-03-14T03:48:34;98730.0;;;11.25;100.0
62458;BME280;48509;52.122;5.250;2023-03-14T03:50:10;98727.0;;;11.37;100.0
62458;BME280;48509;52.122;5.250;2023-03-14T03:51:46;98728.0;;;11.38;100.0
62458;BME280;48509;52.122;5.250;2023-03-14T03:54:59;98727.0;;;11.4;100.0
62458;BME280;48509;52.122;5.250;2023-03-14T03:56:35;98733.0;;;11.46;100.0
62458;BME280;48509;52.122;5.250;2023-03-14T03:58:11;98726.0;;;11.58;100.0
62458;BME280;48509;52.122;5.250;2023-03-14T04:01:23;98724.0;;;11.56;100.0
62458;BME280;48509;52.122;5.250;2023-03-14T04:02:59;98723.0;;;11.56;100.0
62458;BME280;48509;52.122;5.250;2023-03-14T04:04:35;98726.0;;;11.59;100.0
62458;BME280;48509;52.122;5.250;2023-03-14T04:06:13;98730.0;;;11.65;100.0
62458;BME280;48509;52.122;5.250;2023-03-14T04:09:25;98727.0;;;11.63;100.0
62458;BME280;48509;52.122;5.250;2023-03-14T04:11:01;98723.0;;;11.71;99.99
62458;BME280;48509;52.122;5.250;2023-03-14T04:12:39;98724.0;;;11.65;99.93
62458;BME280;48509;52.122;5.250;2023-03-14T04:15:52;98725.0;;;11.67;99.98
62458;BME280;48509;52.122;5.250;2023-03-14T04:17:28;98728.0;;;11.63;100.0
62458;BME280;48509;52.122;5.250;2023-03-14T04:19:04;98734.0;;;11.68;99.55
62458;BME280;48509;52.122;5.250;2023-03-14T04:22:17;98730.0;;;11.73;100.0
62458;BME280;48509;52.122;5.250;2023-03-14T04:23:53;98735.0;;;11.81;99.56
62458;BME280;48509;52.122;5.250;2023-03-14T04:25:30;98732.0;;;11.91;99.09
62458;BME280;48509;52.122;5.250;2023-03-14T04:27:06;98727.0;;;11.83;98.05
62458;BME280;48509;52.122;5.250;2023-03-14T04:30:19;98742.0;;;11.7;99.55
62458;BME280;48509;52.122;5.250;2023-03-14T04:31:55;98736.0;;;11.69;99.18
62458;BME280;48509;52.122;5.250;2023-03-14T04:33:32;98739.0;;;11.71;99.94
62458;BME280;48509;52.122;5.250;2023-03-14T04:36:44;98734.0;;;11.74;100.0
62458;BME280;48509;52.122;5.250;2023-03-14T04:38:20;98730.0;;;11.75;100.0
62458;BME280;48509;52.122;5.250;2023-03-14T04:39:56;98720.0;;;11.82;99.8
62458;BME280;48509;52.122;5.250;2023-03-14T04:43:10;98719.0;;;11.69;100.0
62458;BME280;48509;52.122;5.250;2023-03-14T04:44:47;98719.0;;;11.72;99.56
62458;BME280;48509;52.122;5.250;2023-03-14T04:46:23;98723.0;;;11.75;99.5
62458;BME280;48509;52.122;5.250;2023-03-14T04:47:59;98712.0;;;11.74;99.85
62458;BME280;48509;52.122;5.250;2023-03-14T04:51:11;98711.0;;;11.75;99.49
62458;BME280;48509;52.122;5.250;2023-03-14T04:52:47;98716.0;;;11.71;100.0
62458;BME280;48509;52.122;5.250;2023-03-14T04:54:23;98716.0;;;11.78;100.0
62458;BME280;48509;52.122;5.250;2023-03-14T04:57:36;98711.0;;;11.74;100.0
62458;BME280;48509;52.122;5.250;2023-03-14T04:59:12;98710.0;;;11.62;100.0
62458;BME280;48509;52.122;5.250;2023-03-14T05:00:49;98723.0;;;11.66;100.0
62458;BME280;48509;52.122;5.250;2023-03-14T05:04:02;98717.0;;;11.6;100.0
62458;BME280;48509;52.122;5.250;2023-03-14T05:05:38;98717.0;;;11.6;100.0
62458;BME280;48509;52.122;5.250;2023-03-14T05:07:14;98715.0;;;11.53;100.0
62458;BME280;48509;52.122;5.250;2023-03-14T05:08:50;98714.0;;;11.41;100.0
62458;BME280;48509;52.122;5.250;2023-03-14T05:12:03;98705.0;;;11.28;100.0
62458;BME280;48509;52.122;5.250;2023-03-14T05:13:39;98705.0;;;11.29;100.0
62458;BME280;48509;52.122;5.250;2023-03-14T05:15:15;98701.0;;;11.37;100.0
62458;BME280;48509;52.122;5.250;2023-03-14T05:18:27;98700.0;;;11.32;100.0
62458;BME280;48509;52.122;5.250;2023-03-14T05:20:04;98701.0;;;11.34;100.0
62458;BME280;48509;52.122;5.250;2023-03-14T05:21:40;98699.0;;;11.38;100.0
62458;BME280;48509;52.122;5.250;2023-03-14T05:24:53;98695.0;;;11.38;100.0
62458;BME280;48509;52.122;5.250;2023-03-14T05:26:29;98686.0;;;11.29;100.0
62458;BME280;48509;52.122;5.250;2023-03-14T05:28:06;98686.0;;;11.27;100.0
62458;BME280;48509;52.122;5.250;2023-03-14T05:31:18;98689.0;;;11.3;100.0
62458;BME280;48509;52.122;5.250;2023-03-14T05:32:54;98690.0;;;11.2;100.0
62458;BME280;48509;52.122;5.250;2023-03-14T05:34:30;98692.0;;;11.21;100.0
62458;BME280;48509;52.122;5.250;2023-03-14T05:36:07;98693.0;;;11.24;100.0
62458;BME280;48509;52.122;5.250;2023-03-14T05:39:20;98688.0;;;11.36;100.0
62458;BME280;48509;52.122;5.250;2023-03-14T05:40:56;98695.0;;;11.29;100.0
62458;BME280;48509;52.122;5.250;2023-03-14T05:42:33;98687.0;;;11.22;100.0
62458;BME280;48509;52.122;5.250;2023-03-14T05:45:45;98687.0;;;11.2;100.0
62458;BME280;48509;52.122;5.250;2023-03-14T05:47:21;98688.0;;;11.21;100.0
62458;BME280;48509;52.122;5.250;2023-03-14T05:48:57;98688.0;;;11.16;100.0
62458;BME280;48509;52.122;5.250;2023-03-14T05:52:12;98691.0;;;11.03;100.0
62458;BME280;48509;52.122;5.250;2023-03-14T05:53:48;98688.0;;;11.1;100.0
62458;BME280;48509;52.122;5.250;2023-03-14T05:55:24;98691.0;;;10.98;100.0
62458;BME280;48509;52.122;5.250;2023-03-14T05:57:01;98687.0;;;11.02;100.0
62458;BME280;48509;52.122;5.250;2023-03-14T06:00:14;98687.0;;;11.04;100.0
62458;BME280;48509;52.122;5.250;2023-03-14T06:01:50;98687.0;;;11.08;100.0
62458;BME280;48509;52.122;5.250;2023-03-14T06:03:26;98689.0;;;11.06;100.0
62458;BME280;48509;52.122;5.250;2023-03-14T06:06:41;98690.0;;;11.1;100.0
62458;BME280;48509;52.122;5.250;2023-03-14T06:08:17;98686.0;;;11.11;100.0
62458;BME280;48509;52.122;5.250;2023-03-14T06:09:53;98680.0;;;10.99;100.0
62458;BME280;48509;52.122;5.250;2023-03-14T06:13:05;98687.0;;;11.08;100.0
62458;BME280;48509;52.122;5.250;2023-03-14T06:14:41;98685.0;;;11.0;100.0
62458;BME280;48509;52.122;5.250;2023-03-14T06:16:17;98692.0;;;11.07;100.0
62458;BME280;48509;52.122;5.250;2023-03-14T06:17:54;98697.0;;;10.94;100.0
62458;BME280;48509;52.122;5.250;2023-03-14T06:21:07;98706.0;;;10.96;100.0
62458;BME280;48509;52.122;5.250;2023-03-14T06:22:44;98723.0;;;10.97;100.0
62458;BME280;48509;52.122;5.250;2023-03-14T06:24:20;98742.0;;;10.81;100.0
62458;BME280;48509;52.122;5.250;2023-03-14T06:27:32;98736.0;;;10.82;100.0
62458;BME280;48509;52.122;5.250;2023-03-14T06:29:10;98744.0;;;10.72;100.0
62458;BME280;48509;52.122;5.250;2023-03-14T06:30:45;98764.0;;;10.72;100.0
62458;BME280;48509;52.122;5.250;2023-03-14T06:33:58;98778.0;;;10.83;100.0
62458;BME280;48509;52.122;5.250;2023-03-14T06:35:35;98791.0;;;10.75;100.0
62458;BME280;48509;52.122;5.250;2023-03-14T06:37:11;98798.0;;;10.58;100.0
62458;BME280;48509;52.122;5.250;2023-03-14T06:38:47;98802.0;;;10.39;100.0
62458;BME280;48509;52.122;5.250;2023-03-14T06:41:59;98821.0;;;10.13;100.0
62458;BME280;48509;52.122;5.250;2023-03-14T06:43:35;98825.0;;;10.19;100.0
62458;BME280;48509;52.122;5.250;2023-03-14T06:45:12;98832.0;;;10.13;100.0
62458;BME280;48509;52.122;5.250;2023-03-14T06:48:25;98838.0;;;10.07;100.0
62458;BME280;48509;52.122;5.250;2023-03-14T06:50:01;98838.0;;;9.9;100.0
62458;BME280;48509;52.122;5.250;2023-03-14T06:51:39;98848.0;;;9.82;100.0
62458;BME280;48509;52.122;5.250;2023-03-14T06:54:52;98855.0;;;9.88;100.0
62458;BME280;48509;52.122;5.250;2023-03-14T06:56:28;98853.0;;;9.88;100.0
62458;BME280;48509;52.122;5.250;2023-03-14T06:58:05;98855.0;;;9.93;100.0
62458;BME280;48509;52.122;5.250;2023-03-14T07:01:20;98857.0;;;9.84;100.0
62458;BME280;48509;52.122;5.250;2023-03-14T07:02:58;98859.0;;;9.83;100.0
62458;BME280;48509;52.122;5.250;2023-03-14T07:04:34;98873.0;;;9.89;100.0
62458;BME280;48509;52.122;5.250;2023-03-14T07:06:10;98884.0;;;9.81;100.0
62458;BME280;48509;52.122;5.250;2023-03-14T07:09:23;98885.0;;;9.78;100.0
62458;BME280;48509;52.122;5.250;2023-03-14T07:10:59;98887.0;;;9.77;100.0
62458;BME280;48509;52.122;5.250;2023-03-14T07:12:35;98893.0;;;9.78;100.0
62458;BME280;48509;52.122;5.250;2023-03-14T07:15:47;98903.0;;;9.78;100.0
62458;BME280;48509;52.122;5.250;2023-03-14T07:17:23;98911.0;;;9.83;100.0
62458;BME280;48509;52.122;5.250;2023-03-14T07:19:00;98931.0;;;9.81;100.0
62458;BME280;48509;52.122;5.250;2023-03-14T07:22:13;98937.0;;;9.68;100.0
62458;BME280;48509;52.122;5.250;2023-03-14T07:23:49;98946.0;;;9.6;100.0
62458;BME280;48509;52.122;5.250;2023-03-14T07:25:25;98952.0;;;9.67;100.0
62458;BME280;48509;52.122;5.250;2023-03-14T07:27:02;98965.0;;;9.75;100.0
62458;BME280;48509;52.122;5.250;2023-03-14T07:30:14;98977.0;;;9.67;100.0
62458;BME280;48509;52.122;5.250;2023-03-14T07:31:50;98982.0;;;9.8;100.0
62458;BME280;48509;52.122;5.250;2023-03-14T07:33:26;98992.0;;;9.92;100.0
62458;BME280;48509;52.122;5.250;2023-03-14T07:36:40;99001.0;;;9.81;100.0
62458;BME280;48509;52.122;5.250;2023-03-14T07:38:17;99010.0;;;9.71;100.0
62458;BME280;48509;52.122;5.250;2023-03-14T07:39:52;99021.0;;;9.64;100.0
62458;BME280;48509;52.122;5.250;2023-03-14T07:43:04;99027.0;;;9.5;100.0
62458;BME280;48509;52.122;5.250;2023-03-14T07:44:41;99040.0;;;9.42;100.0
62458;BME280;48509;52.122;5.250;2023-03-14T07:46:17;99050.0;;;9.42;100.0
62458;BME280;48509;52.122;5.250;2023-03-14T07:47:52;99057.0;;;9.46;100.0
62458;BME280;48509;52.122;5.250;2023-03-14T07:51:05;99056.0;;;9.17;100.0
62458;BME280;48509;52.122;5.250;2023-03-14T07:52:41;99073.0;;;9.13;100.0
62458;BME280;48509;52.122;5.250;2023-03-14T07:54:17;99072.0;;;9.19;100.0
62458;BME280;48509;52.122;5.250;2023-03-14T07:57:29;99081.0;;;9.16;100.0
62458;BME280;48509;52.122;5.250;2023-03-14T07:59:06;99089.0;;;9.16;100.0
62458;BME280;48509;52.122;5.250;2023-03-14T08:00:42;99099.0;;;9.31;100.0
62458;BME280;48509;52.122;5.250;2023-03-14T08:03:55;99112.0;;;9.32;100.0
62458;BME280;48509;52.122;5.250;2023-03-14T08:05:34;99128.0;;;9.17;100.0
62458;BME280;48509;52.122;5.250;2023-03-14T08:07:10;99159.0;;;9.17;100.0
62458;BME280;48509;52.122;5.250;2023-03-14T08:08:46;99164.0;;;8.74;100.0
62458;BME280;48509;52.122;5.250;2023-03-14T08:11:58;99167.0;;;8.77;100.0
62458;BME280;48509;52.122;5.250;2023-03-14T08:13:35;99182.0;;;8.84;100.0
62458;BME280;48509;52.122;5.250;2023-03-14T08:15:13;99201.0;;;8.72;100.0
62458;BME280;48509;52.122;5.250;2023-03-14T08:18:26;99203.0;;;8.48;100.0
62458;BME280;48509;52.122;5.250;2023-03-14T08:20:03;99227.0;;;8.34;100.0
62458;BME280;48509;52.122;5.250;2023-03-14T08:21:40;99231.0;;;8.23;100.0
62458;BME280;48509;52.122;5.250;2023-03-14T08:24:51;99241.0;;;8.06;100.0
62458;BME280;48509;52.122;5.250;2023-03-14T08:26:27;99250.0;;;8.15;100.0
62458;BME280;48509;52.122;5.250;2023-03-14T08:28:04;99259.0;;;8.15;100.0
62458;BME280;48509;52.122;5.250;2023-03-14T08:29:41;99269.0;;;8.14;100.0
62458;BME280;48509;52.122;5.250;2023-03-14T08:32:53;99272.0;;;8.14;100.0
62458;BME280;48509;52.122;5.250;2023-03-14T08:34:32;99283.0;;;8.08;100.0
62458;BME280;48509;52.122;5.250;2023-03-14T08:36:09;99294.0;;;7.92;100.0
62458;BME280;48509;52.122;5.250;2023-03-14T08:39:22;99297.0;;;8.02;100.0
62458;BME280;48509;52.122;5.250;2023-03-14T08:40:59;99309.0;;;8.14;100.0
62458;BME280;48509;52.122;5.250;2023-03-14T08:42:37;99315.0;;;8.08;100.0
62458;BME280;48509;52.122;5.250;2023-03-14T08:45:50;99321.0;;;7.86;100.0
62458;BME280;48509;52.122;5.250;2023-03-14T08:47:26;99330.0;;;7.73;100.0
62458;BME280;48509;52.122;5.250;2023-03-14T08:49:02;99348.0;;;7.85;100.0
62458;BME280;48509;52.122;5.250;2023-03-14T08:50:39;99349.0;;;7.95;100.0
62458;BME280;48509;52.122;5.250;2023-03-14T08:53:52;99356.0;;;8.07;100.0
62458;BME280;48509;52.122;5.250;2023-03-14T08:55:29;99362.0;;;8.23;100.0
62458;BME280;48509;52.122;5.250;2023-03-14T08:57:05;99377.0;;;8.05;100.0
62458;BME280;48509;52.122;5.250;2023-03-14T09:00:19;99389.0;;;8.02;100.0
62458;BME280;48509;52.122;5.250;2023-03-14T09:01:55;99397.0;;;8.22;100.0
62458;BME280;48509;52.122;5.250;2023-03-14T09:03:31;99401.0;;;8.31;100.0
62458;BME280;48509;52.122;5.250;2023-03-14T09:06:44;99413.0;;;8.03;100.0
62458;BME280;48509;52.122;5.250;2023-03-14T09:08:20;99417.0;;;8.13;100.0
62458;BME280;48509;52.122;5.250;2023-03-14T09:09:57;99418.0;;;8.02;100.0
62458;BME280;48509;52.122;5.250;2023-03-14T09:11:33;99432.0;;;8.3;100.0
62458;BME280;48509;52.122;5.250;2023-03-14T09:14:45;99439.0;;;8.25;100.0
62458;BME280;48509;52.122;5.250;2023-03-14T09:16:21;99455.0;;;8.23;100.0
62458;BME280;48509;52.122;5.250;2023-03-14T09:17:57;99462.0;;;8.32;100.0
62458;BME280;48509;52.122;5.250;2023-03-14T09:21:10;99465.0;;;8.18;100.0
62458;BME280;48509;52.122;5.250;2023-03-14T09:22:46;99477.0;;;8.22;100.0
62458;BME280;48509;52.122;5.250;2023-03-14T09:24:22;99488.0;;;8.1;100.0
62458;BME280;48509;52.122;5.250;2023-03-14T09:27:35;99495.0;;;8.36;100.0
62458;BME280;48509;52.122;5.250;2023-03-14T09:29:11;99507.0;;;8.35;100.0
62458;BME280;48509;52.122;5.250;2023-03-14T09:30:47;99514.0;;;8.24;100.0
62458;BME280;48509;52.122;5.250;2023-03-14T09:33:59;99520.0;;;8.18;100.0
62458;BME280;48509;52.122;5.250;2023-03-14T09:35:36;99536.0;;;7.92;100.0
62458;BME280;48509;52.122;5.250;2023-03-14T09:37:12;99538.0;;;7.74;100.0
62458;BME280;48509;52.122;5.250;2023-03-14T09:38:48;99533.0;;;7.62;100.0
62458;BME280;48509;52.122;5.250;2023-03-14T09:42:13;99546.0;;;7.8;100.0
62458;BME280;48509;52.122;5.250;2023-03-14T09:43:55;99555.0;;;7.91;100.0
62458;BME280;48509;52.122;5.250;2023-03-14T09:45:40;99564.0;;;7.96;100.0
62458;BME280;48509;52.122;5.250;2023-03-14T09:47:18;99573.0;;;8.14;100.0
62458;BME280;48509;52.122;5.250;2023-03-14T09:50:35;99584.0;;;8.3;100.0
62458;BME280;48509;52.122;5.250;2023-03-14T09:52:15;99586.0;;;8.32;100.0
62458;BME280;48509;52.122;5.250;2023-03-14T09:53:55;99595.0;;;8.43;98.87
62458;BME280;48509;52.122;5.250;2023-03-14T09:55:31;99594.0;;;8.45;98.6
62458;BME280;48509;52.122;5.250;2023-03-14T09:58:53;99605.0;;;8.39;99.74
62458;BME280;48509;52.122;5.250;2023-03-14T10:00:31;99617.0;;;8.51;100.0
62458;BME280;48509;52.122;5.250;2023-03-14T10:02:15;99616.0;;;8.51;99.5
62458;BME280;48509;52.122;5.250;2023-03-14T10:03:54;99631.0;;;8.57;97.62
62458;BME280;48509;52.122;5.250;2023-03-14T10:07:11;99637.0;;;8.56;96.36
62458;BME280;48509;52.122;5.250;2023-03-14T10:08:50;99655.0;;;8.39;97.84
62458;BME280;48509;52.122;5.250;2023-03-14T10:10:26;99663.0;;;8.51;97.03
62458;BME280;48509;52.122;5.250;2023-03-14T10:13:47;99678.0;;;8.42;100.0
62458;BME280;48509;52.122;5.250;2023-03-14T10:15:27;99682.0;;;8.18;100.0
62458;BME280;48509;52.122;5.250;2023-03-14T10:17:09;99705.0;;;7.64;100.0
62458;BME280;48509;52.122;5.250;2023-03-14T10:18:46;99710.0;;;7.46;100.0
62458;BME280;48509;52.122;5.250;2023-03-14T10:22:10;99716.0;;;7.41;100.0
62458;BME280;48509;52.122;5.250;2023-03-14T10:23:50;99719.0;;;7.4;100.0
62458;BME280;48509;52.122;5.250;2023-03-14T10:25:28;99724.0;;;7.68;100.0
62458;BME280;48509;52.122;5.250;2023-03-14T10:27:18;99726.0;;;7.81;100.0
62458;BME280;48509;52.122;5.250;2023-03-14T10:29:02;99736.0;;;7.84;100.0
62458;BME280;48509;52.122;5.250;2023-03-14T10:32:21;99744.0;;;7.81;100.0
62458;BME280;48509;52.122;5.250;2023-03-14T10:34:04;99748.0;;;7.89;100.0
62458;BME280;48509;52.122;5.250;2023-03-14T10:35:41;99753.0;;;7.82;100.0
62458;BME280;48509;52.122;5.250;2023-03-14T10:37:18;99759.0;;;7.98;100.0
62458;BME280;48509;52.122;5.250;2023-03-14T10:40:53;99760.0;;;8.17;100.0
62458;BME280;48509;52.122;5.250;2023-03-14T10:42:31;99771.0;;;8.38;100.0
62458;BME280;48509;52.122;5.250;2023-03-14T10:44:10;99784.0;;;8.38;100.0
62458;BME280;48509;52.122;5.250;2023-03-14T10:45:52;99800.0;;;8.5;100.0
62458;BME280;48509;52.122;5.250;2023-03-14T10:49:23;99816.0;;;8.75;100.0
62458;BME280;48509;52.122;5.250;2023-03-14T10:51:04;99828.0;;;8.25;96.93
62458;BME280;48509;52.122;5.250;2023-03-14T10:52:47;99832.0;;;8.15;97.31
62458;BME280;48509;52.122;5.250;2023-03-14T10:54:24;99845.0;;;7.99;93.5
62458;BME280;48509;52.122;5.250;2023-03-14T10:57:43;99847.0;;;8.03;97.2
62458;BME280;48509;52.122;5.250;2023-03-14T10:59:19;99859.0;;;7.92;99.61
62458;BME280;48509;52.122;5.250;2023-03-14T11:01:04;99865.0;;;8.06;99.05
62458;BME280;48509;52.122;5.250;2023-03-14T11:02:53;99876.0;;;8.06;97.48
62458;BME280;48509;52.122;5.250;2023-03-14T11:04:52;99882.0;;;8.0;92.07
62458;BME280;48509;52.122;5.250;2023-03-14T11:06:40;99887.0;;;8.13;91.75
62458;BME280;48509;52.122;5.250;2023-03-14T11:10:11;99899.0;;;8.1;95.98
62458;BME280;48509;52.122;5.250;2023-03-14T11:11:56;99903.0;;;8.28;98.25
62458;BME280;48509;52.122;5.250;2023-03-14T11:13:44;99907.0;;;8.31;95.42
62458;BME280;48509;52.122;5.250;2023-03-14T11:15:31;99923.0;;;8.26;94.51
62458;BME280;48509;52.122;5.250;2023-03-14T11:17:15;99935.0;;;8.39;93.08
62458;BME280;48509;52.122;5.250;2023-03-14T11:21:08;99937.0;;;8.25;87.69